createdAt,value
2022-12-01T00:00:00.054Z,102484.28
2022-12-01T00:02:29.386Z,102484.94
2022-12-01T00:04:57.380Z,102482.22
2022-12-01T00:07:24.925Z,102481.69
2022-12-01T00:10:10.177Z,102475.59
2022-12-01T00:12:36.676Z,102481.91
2022-12-01T00:15:03.174Z,102481.91
2022-12-01T00:17:37.939Z,102482.69
2022-12-01T00:20:08.661Z,102483.81
2022-12-01T00:22:36.716Z,102472.06
2022-12-01T00:25:03.679Z,102483.50
2022-12-01T00:27:30.122Z,102476.22
2022-12-01T00:29:56.558Z,102482.22
2022-12-01T00:32:22.984Z,102480.66
2022-12-01T00:34:52.025Z,102482.22
2022-12-01T00:37:18.485Z,102481.22
2022-12-01T00:39:45.895Z,102473.09
2022-12-01T00:42:13.914Z,102469.69
2022-12-01T00:44:41.535Z,102468.31
2022-12-01T00:47:08.023Z,102474.78
2022-12-01T00:49:41.972Z,102475.72
2022-12-01T00:52:11.378Z,102468.38
2022-12-01T00:54:46.117Z,102473.66
2022-12-01T00:57:15.619Z,102465.75
2022-12-01T00:59:43.334Z,102465.66
2022-12-01T01:02:10.573Z,102462.94
2022-12-01T01:04:38.934Z,102465.19
2022-12-01T01:07:08.309Z,102464.94
2022-12-01T01:09:34.754Z,102473.53
2022-12-01T01:12:06.829Z,102477.47
2022-12-01T01:14:36.677Z,102470.00
2022-12-01T01:17:03.209Z,102462.59
2022-12-01T01:19:29.702Z,102471.38
2022-12-01T01:21:56.137Z,102456.25
2022-12-01T01:24:22.546Z,102469.94
2022-12-01T01:26:49.197Z,102469.94
2022-12-01T01:29:15.614Z,102475.19
2022-12-01T01:31:42.077Z,102474.66
2022-12-01T01:34:09.672Z,102467.84
2022-12-01T01:36:39.385Z,102462.81
2022-12-01T01:39:07.503Z,102474.78
2022-12-01T01:41:37.485Z,102472.19
2022-12-01T01:44:26.315Z,102475.22
2022-12-01T01:46:52.854Z,102470.91
2022-12-01T01:49:19.301Z,102470.59
2022-12-01T01:51:50.262Z,102461.59
2022-12-01T01:54:27.072Z,102473.09
2022-12-01T01:56:55.131Z,102454.91
2022-12-01T01:59:24.076Z,102466.19
2022-12-01T02:01:57.458Z,102460.88
2022-12-01T02:09:48.892Z,102466.41
2022-12-01T02:12:36.796Z,102464.75
2022-12-01T02:15:38.126Z,102469.94
2022-12-01T02:18:16.716Z,102475.91
2022-12-01T02:21:11.141Z,102472.50
2022-12-01T02:23:49.649Z,102470.44
2022-12-01T02:26:37.491Z,102465.28
2022-12-01T02:29:28.376Z,102466.16
2022-12-01T02:32:22.942Z,102458.69
2022-12-01T02:35:10.474Z,102463.13
2022-12-01T02:37:59.209Z,102464.47
2022-12-01T02:40:35.907Z,102462.00
2022-12-01T02:43:20.817Z,102464.00
2022-12-01T02:45:54.515Z,102466.72
2022-12-01T02:48:25.238Z,102459.63
2022-12-01T02:50:52.549Z,102460.00
2022-12-01T02:53:24.450Z,102459.00
2022-12-01T02:56:19.173Z,102460.34
2022-12-01T02:58:45.600Z,102455.47
2022-12-01T03:01:36.654Z,102452.63
2022-12-01T03:04:29.539Z,102460.97
2022-12-01T03:07:20.934Z,102453.59
2022-12-01T03:10:25.198Z,102446.16
2022-12-01T03:12:51.744Z,102453.63
2022-12-01T03:15:48.982Z,102452.97
2022-12-01T03:18:43.623Z,102454.53
2022-12-01T03:21:45.553Z,102456.47
2022-12-01T03:27:03.323Z,102463.50
2022-12-01T03:29:38.667Z,102449.38
2022-12-01T03:32:31.878Z,102451.84
2022-12-01T03:35:16.131Z,102442.59
2022-12-01T03:38:20.700Z,102453.88
2022-12-01T03:44:57.424Z,102439.00
2022-12-01T03:51:25.796Z,102444.19
2022-12-01T03:58:00.130Z,102447.97
2022-12-01T04:00:26.880Z,102443.13
2022-12-01T04:04:01.733Z,102444.69
2022-12-01T04:06:28.254Z,102439.63
2022-12-01T04:09:51.950Z,102446.09
2022-12-01T04:12:30.667Z,102450.84
2022-12-01T04:14:57.986Z,102448.31
2022-12-01T04:17:25.123Z,102452.84
2022-12-01T04:19:51.850Z,102449.19
2022-12-01T04:22:18.553Z,102447.38
2022-12-01T04:24:45.324Z,102449.44
2022-12-01T04:27:19.417Z,102451.34
2022-12-01T04:29:50.462Z,102444.47
2022-12-01T04:32:17.098Z,102451.28
2022-12-01T04:34:43.542Z,102447.13
2022-12-01T04:37:10.390Z,102449.28
2022-12-01T04:43:27.577Z,102446.41
2022-12-01T04:45:54.027Z,102452.53
2022-12-01T04:48:24.479Z,102441.91
2022-12-01T04:50:53.006Z,102455.69
2022-12-01T04:53:21.802Z,102457.03
2022-12-01T04:55:48.237Z,102459.75
2022-12-01T04:58:14.737Z,102453.88
2022-12-01T05:01:06.391Z,102450.50
2022-12-01T05:03:39.478Z,102456.38
2022-12-01T05:06:19.640Z,102462.34
2022-12-01T05:08:49.678Z,102456.25
2022-12-01T05:11:22.769Z,102465.06
2022-12-01T05:13:50.304Z,102467.66
2022-12-01T05:16:32.314Z,102459.44
2022-12-01T05:19:40.644Z,102452.56
2022-12-01T05:22:08.478Z,102465.66
2022-12-01T05:24:43.575Z,102468.25
2022-12-01T05:27:10.044Z,102467.34
2022-12-01T05:29:36.457Z,102462.72
2022-12-01T05:32:11.417Z,102472.19
2022-12-01T05:34:45.400Z,102472.44
2022-12-01T05:37:14.930Z,102471.84
2022-12-01T05:39:41.680Z,102472.53
2022-12-01T05:42:14.375Z,102476.69
2022-12-01T05:44:40.804Z,102472.75
2022-12-01T05:47:14.724Z,102473.75
2022-12-01T05:49:43.076Z,102477.28
2022-12-01T05:52:14.964Z,102474.34
2022-12-01T05:54:48.428Z,102483.25
2022-12-01T06:01:00.527Z,102487.09
2022-12-01T06:03:32.067Z,102481.69
2022-12-01T06:06:00.805Z,102490.13
2022-12-01T06:08:27.809Z,102486.75
2022-12-01T06:10:54.224Z,102487.19
2022-12-01T06:13:32.501Z,102494.41
2022-12-01T06:16:06.077Z,102486.97
2022-12-01T06:18:48.303Z,102494.31
2022-12-01T06:21:14.731Z,102498.81
2022-12-01T06:23:41.188Z,102497.38
2022-12-01T06:26:08.709Z,102499.94
2022-12-01T06:28:35.208Z,102503.00
2022-12-01T06:31:03.648Z,102508.66
2022-12-01T06:33:31.626Z,102501.63
2022-12-01T06:36:11.962Z,102506.50
2022-12-01T06:38:38.553Z,102501.19
2022-12-01T06:41:39.313Z,102510.88
2022-12-01T06:44:10.183Z,102510.69
2022-12-01T06:46:37.014Z,102512.00
2022-12-01T06:53:04.995Z,102509.31
2022-12-01T06:55:31.459Z,102503.91
2022-12-01T06:58:00.210Z,102511.22
2022-12-01T07:00:26.945Z,102512.03
2022-12-01T07:02:53.427Z,102513.94
2022-12-01T07:05:20.212Z,102513.13
2022-12-01T07:07:47.241Z,102505.59
2022-12-01T07:10:14.220Z,102518.34
2022-12-01T07:12:41.993Z,102511.91
2022-12-01T07:15:09.001Z,102511.13
2022-12-01T07:17:36.236Z,102513.72
2022-12-01T07:20:03.980Z,102514.28
2022-12-01T07:22:32.825Z,102508.84
2022-12-01T07:25:06.445Z,102510.34
2022-12-01T07:27:32.847Z,102512.25
2022-12-01T07:29:59.270Z,102508.84
2022-12-01T07:32:25.756Z,102507.63
2022-12-01T07:34:52.180Z,102512.03
2022-12-01T07:37:18.616Z,102506.72
2022-12-01T07:39:45.065Z,102515.31
2022-12-01T07:42:11.479Z,102514.53
2022-12-01T07:44:37.913Z,102516.97
2022-12-01T07:47:04.481Z,102522.28
2022-12-01T07:49:30.902Z,102515.28
2022-12-01T07:51:57.340Z,102513.38
2022-12-01T07:54:25.445Z,102519.47
2022-12-01T07:56:51.895Z,102528.28
2022-12-01T07:59:18.361Z,102521.03
2022-12-01T08:01:46.056Z,102520.28
2022-12-01T08:04:12.595Z,102517.69
2022-12-01T08:06:39.135Z,102524.31
2022-12-01T08:09:06.044Z,102525.00
2022-12-01T08:11:32.512Z,102510.91
2022-12-01T08:13:58.970Z,102513.16
2022-12-01T08:16:26.301Z,102516.75
2022-12-01T08:18:54.169Z,102522.31
2022-12-01T08:21:22.167Z,102510.00
2022-12-01T08:23:51.840Z,102510.66
2022-12-01T08:26:19.290Z,102518.78
2022-12-01T08:28:46.404Z,102521.84
2022-12-01T08:31:22.903Z,102528.06
2022-12-01T08:33:50.563Z,102529.63
2022-12-01T08:36:19.120Z,102532.13
2022-12-01T08:38:48.109Z,102528.28
2022-12-01T08:41:15.277Z,102536.19
2022-12-01T08:44:00.346Z,102525.00
2022-12-01T08:46:32.025Z,102531.41
2022-12-01T08:48:58.576Z,102532.09
2022-12-01T08:51:25.838Z,102536.63
2022-12-01T08:53:54.937Z,102527.69
2022-12-01T08:56:25.252Z,102525.69
2022-12-01T08:58:52.163Z,102527.47
2022-12-01T09:01:20.330Z,102538.41
2022-12-01T09:03:46.907Z,102539.56
2022-12-01T09:06:16.238Z,102536.28
2022-12-01T09:08:45.806Z,102529.72
2022-12-01T09:11:17.082Z,102528.47
2022-12-01T09:13:46.002Z,102531.31
2022-12-01T09:16:16.722Z,102531.44
2022-12-01T09:18:44.663Z,102535.50
2022-12-01T09:21:11.245Z,102523.31
2022-12-01T09:23:37.876Z,102523.44
2022-12-01T09:26:04.466Z,102518.56
2022-12-01T09:28:30.922Z,102517.56
2022-12-01T09:30:58.855Z,102518.34
2022-12-01T09:33:25.297Z,102511.66
2022-12-01T09:35:52.967Z,102515.41
2022-12-01T09:38:20.838Z,102517.00
2022-12-01T09:40:47.331Z,102508.50
2022-12-01T09:43:18.974Z,102508.97
2022-12-01T09:45:50.498Z,102501.09
2022-12-01T09:48:26.896Z,102504.25
2022-12-01T09:50:54.896Z,102497.78
2022-12-01T09:53:24.763Z,102512.94
2022-12-01T09:55:51.556Z,102492.03
2022-12-01T09:58:21.772Z,102502.00
2022-12-01T10:00:50.154Z,102496.34
2022-12-01T10:03:45.422Z,102503.53
2022-12-01T10:06:27.859Z,102494.41
2022-12-01T10:09:19.404Z,102501.94
2022-12-01T10:11:47.158Z,102499.88
2022-12-01T10:14:20.529Z,102486.78
2022-12-01T10:17:03.910Z,102496.19
2022-12-01T10:20:16.069Z,102488.53
2022-12-01T10:22:49.370Z,102490.69
2022-12-01T10:25:25.582Z,102492.72
2022-12-01T10:28:07.347Z,102480.44
2022-12-01T10:30:39.298Z,102481.78
2022-12-01T10:33:31.401Z,102484.16
2022-12-01T10:35:58.130Z,102481.88
2022-12-01T10:38:24.564Z,102488.53
2022-12-01T10:40:51.633Z,102479.94
2022-12-01T10:43:18.053Z,102472.81
2022-12-01T10:45:45.946Z,102477.31
2022-12-01T10:48:18.174Z,102482.31
2022-12-01T10:50:50.112Z,102483.09
2022-12-01T10:53:27.297Z,102474.97
2022-12-01T10:56:15.896Z,102478.16
2022-12-01T10:58:49.050Z,102471.16
2022-12-01T11:01:20.819Z,102473.78
2022-12-01T11:03:52.058Z,102467.56
2022-12-01T11:06:22.519Z,102469.59
2022-12-01T11:08:57.801Z,102469.94
2022-12-01T11:11:33.560Z,102467.34
2022-12-01T11:14:05.184Z,102462.91
2022-12-01T11:16:41.734Z,102471.91
2022-12-01T11:19:36.497Z,102476.47
2022-12-01T11:22:20.339Z,102482.31
2022-12-01T11:24:58.513Z,102472.75
2022-12-01T11:27:28.832Z,102472.59
2022-12-01T11:29:57.573Z,102465.50
2022-12-01T11:32:29.622Z,102471.78
2022-12-01T11:35:15.485Z,102463.41
2022-12-01T11:38:27.747Z,102462.28
2022-12-01T11:40:54.592Z,102460.66
2022-12-01T11:43:37.494Z,102461.91
2022-12-01T11:46:08.115Z,102467.91
2022-12-01T11:48:36.264Z,102463.63
2022-12-01T11:51:29.046Z,102455.63
2022-12-01T11:54:11.061Z,102448.91
2022-12-01T11:56:37.550Z,102454.78
2022-12-01T11:59:06.708Z,102461.66
2022-12-01T12:02:14.166Z,102463.91
2022-12-01T12:04:57.435Z,102456.03
2022-12-01T12:07:42.495Z,102461.06
2022-12-01T12:10:33.475Z,102466.00
2022-12-01T12:13:21.748Z,102460.81
2022-12-01T12:16:33.463Z,102456.88
2022-12-01T12:20:06.023Z,102459.91
2022-12-01T12:23:14.381Z,102447.75
2022-12-01T12:26:06.621Z,102450.53
2022-12-01T12:28:52.951Z,102458.16
2022-12-01T12:31:50.383Z,102460.91
2022-12-01T12:34:34.121Z,102454.31
2022-12-01T12:37:29.633Z,102455.66
2022-12-01T12:40:12.157Z,102446.50
2022-12-01T12:43:03.884Z,102438.78
2022-12-01T12:45:54.590Z,102444.63
2022-12-01T12:48:26.980Z,102447.06
2022-12-01T12:51:10.823Z,102446.84
2022-12-01T12:53:45.074Z,102443.22
2022-12-01T12:56:14.790Z,102443.53
2022-12-01T12:58:53.239Z,102442.97
2022-12-01T13:01:24.111Z,102441.22
2022-12-01T13:04:01.090Z,102430.47
2022-12-01T13:06:40.396Z,102434.00
2022-12-01T13:09:14.224Z,102430.06
2022-12-01T13:11:50.247Z,102427.34
2022-12-01T13:14:37.345Z,102425.50
2022-12-01T13:17:30.961Z,102432.75
2022-12-01T13:19:57.467Z,102427.88
2022-12-01T13:22:31.285Z,102433.72
2022-12-01T13:24:58.016Z,102438.69
2022-12-01T13:27:26.192Z,102434.16
2022-12-01T13:29:54.282Z,102431.81
2022-12-01T13:32:48.264Z,102424.78
2022-12-01T13:35:44.435Z,102427.91
2022-12-01T13:38:19.977Z,102426.06
2022-12-01T13:40:46.798Z,102424.16
2022-12-01T13:43:19.575Z,102430.09
2022-12-01T13:45:46.593Z,102434.91
2022-12-01T13:48:37.988Z,102427.50
2022-12-01T13:51:04.949Z,102415.88
2022-12-01T13:53:38.742Z,102422.44
2022-12-01T13:56:19.740Z,102424.34
2022-12-01T13:58:51.032Z,102421.78
2022-12-01T14:01:20.764Z,102424.72
2022-12-01T14:04:02.439Z,102419.97
2022-12-01T14:06:38.998Z,102426.28
2022-12-01T14:09:13.824Z,102427.91
2022-12-01T14:11:40.484Z,102431.94
2022-12-01T14:14:24.249Z,102420.56
2022-12-01T14:16:59.259Z,102430.81
2022-12-01T14:19:46.253Z,102430.34
2022-12-01T14:22:34.574Z,102424.78
2022-12-01T14:25:01.547Z,102421.75
2022-12-01T14:27:40.117Z,102417.44
2022-12-01T14:30:46.828Z,102424.56
2022-12-01T14:33:52.387Z,102421.06
2022-12-01T14:36:24.876Z,102419.66
2022-12-01T14:38:53.840Z,102411.59
2022-12-01T14:41:30.619Z,102419.91
2022-12-01T14:44:06.613Z,102419.31
2022-12-01T14:46:57.948Z,102418.88
2022-12-01T14:49:28.317Z,102414.38
2022-12-01T14:51:59.397Z,102417.25
2022-12-01T14:54:31.277Z,102408.78
2022-12-01T14:57:05.880Z,102409.63
2022-12-01T14:59:33.876Z,102403.91
2022-12-01T15:02:12.434Z,102401.47
2022-12-01T15:05:08.693Z,102402.34
2022-12-01T15:07:43.713Z,102404.91
2022-12-01T15:10:21.596Z,102399.84
2022-12-01T15:12:49.092Z,102404.56
2022-12-01T15:15:17.832Z,102401.91
2022-12-01T15:17:47.613Z,102400.25
2022-12-01T15:20:29.202Z,102392.47
2022-12-01T15:22:56.358Z,102391.81
2022-12-01T15:25:23.502Z,102387.28
2022-12-01T15:28:16.241Z,102396.00
2022-12-01T15:30:44.774Z,102390.19
2022-12-01T15:33:27.157Z,102384.19
2022-12-01T15:35:55.059Z,102390.09
2022-12-01T15:38:27.733Z,102382.59
2022-12-01T15:41:27.395Z,102386.84
2022-12-01T15:43:41.584Z,102389.84
2022-12-01T15:46:17.715Z,102389.03
2022-12-01T15:48:45.399Z,102380.22
2022-12-01T15:51:26.008Z,102381.88
2022-12-01T15:53:59.069Z,102374.41
2022-12-01T15:56:32.168Z,102368.25
2022-12-01T15:59:09.485Z,102376.09
2022-12-01T16:01:36.435Z,102373.09
2022-12-01T16:04:06.558Z,102369.88
2022-12-01T16:06:35.483Z,102368.56
2022-12-01T16:09:43.067Z,102373.09
2022-12-01T16:12:09.526Z,102374.09
2022-12-01T16:14:38.825Z,102373.97
2022-12-01T16:17:08.597Z,102380.72
2022-12-01T16:19:36.000Z,102381.63
2022-12-01T16:22:11.680Z,102386.56
2022-12-01T16:24:45.724Z,102386.31
2022-12-01T16:27:24.237Z,102379.16
2022-12-01T16:29:56.864Z,102380.59
2022-12-01T16:32:35.949Z,102383.31
2022-12-01T16:35:05.269Z,102373.66
2022-12-01T16:37:31.818Z,102376.13
2022-12-01T16:39:58.640Z,102372.44
2022-12-01T16:42:25.095Z,102378.91
2022-12-01T16:44:52.114Z,102375.69
2022-12-01T16:47:28.914Z,102380.41
2022-12-01T16:49:55.372Z,102371.34
2022-12-01T16:55:38.733Z,102370.72
2022-12-01T16:58:06.673Z,102366.88
2022-12-01T17:00:33.455Z,102372.94
2022-12-01T17:03:00.326Z,102367.19
2022-12-01T17:05:28.568Z,102373.16
2022-12-01T17:07:55.572Z,102371.44
2022-12-01T17:10:23.059Z,102364.09
2022-12-01T17:12:50.201Z,102361.19
2022-12-01T17:15:17.785Z,102365.63
2022-12-01T17:17:44.608Z,102363.78
2022-12-01T17:20:11.283Z,102358.59
2022-12-01T17:22:37.837Z,102361.28
2022-12-01T17:25:09.503Z,102359.06
2022-12-01T17:27:39.087Z,102365.03
2022-12-01T17:30:07.200Z,102364.47
2022-12-01T17:32:33.744Z,102364.53
2022-12-01T17:35:00.210Z,102367.22
2022-12-01T17:37:27.985Z,102365.13
2022-12-01T17:39:57.233Z,102367.53
2022-12-01T17:42:23.773Z,102372.50
2022-12-01T17:44:50.574Z,102368.84
2022-12-01T17:47:17.259Z,102370.63
2022-12-01T17:49:43.773Z,102375.19
2022-12-01T17:52:10.322Z,102373.34
2022-12-01T17:54:36.836Z,102380.06
2022-12-01T17:57:03.338Z,102378.88
2022-12-01T17:59:29.859Z,102375.22
2022-12-01T18:01:56.505Z,102378.00
2022-12-01T18:04:22.966Z,102378.88
2022-12-01T18:06:54.051Z,102383.31
2022-12-01T18:09:21.206Z,102377.91
2022-12-01T18:11:47.708Z,102378.94
2022-12-01T18:14:17.639Z,102373.88
2022-12-01T18:16:44.642Z,102379.25
2022-12-01T18:19:11.151Z,102366.88
2022-12-01T18:21:40.874Z,102364.09
2022-12-01T18:24:09.191Z,102369.50
2022-12-01T18:26:38.209Z,102376.66
2022-12-01T18:29:26.265Z,102385.13
2022-12-01T18:31:54.809Z,102385.28
2022-12-01T18:34:21.319Z,102372.59
2022-12-01T18:36:55.090Z,102372.91
2022-12-01T18:39:26.633Z,102383.44
2022-12-01T18:42:50.082Z,102384.91
2022-12-01T18:45:24.146Z,102387.75
2022-12-01T18:47:50.634Z,102376.31
2022-12-01T18:50:17.082Z,102376.63
2022-12-01T18:52:43.479Z,102373.50
2022-12-01T18:55:09.937Z,102383.72
2022-12-01T18:57:36.505Z,102389.09
2022-12-01T19:00:14.043Z,102390.91
2022-12-01T19:02:40.615Z,102378.69
2022-12-01T19:05:07.270Z,102378.53
2022-12-01T19:07:33.829Z,102379.28
2022-12-01T19:10:04.617Z,102373.47
2022-12-01T19:12:36.453Z,102378.22
2022-12-01T19:15:06.643Z,102370.94
2022-12-01T19:17:33.475Z,102374.50
2022-12-01T19:20:01.303Z,102372.78
2022-12-01T19:22:28.461Z,102371.03
2022-12-01T19:24:55.175Z,102378.44
2022-12-01T19:27:24.020Z,102368.03
2022-12-01T19:29:52.185Z,102364.91
2022-12-01T19:32:19.431Z,102369.13
2022-12-01T19:34:45.877Z,102369.47
2022-12-01T19:37:13.943Z,102371.13
2022-12-01T19:39:40.506Z,102362.38
2022-12-01T19:45:24.464Z,102356.47
2022-12-01T19:47:53.518Z,102356.31
2022-12-01T19:50:27.438Z,102349.06
2022-12-01T19:52:53.920Z,102349.69
2022-12-01T19:55:21.732Z,102360.97
2022-12-01T19:57:51.691Z,102358.59
2022-12-01T20:00:25.986Z,102352.53
2022-12-01T20:05:38.423Z,102358.84
2022-12-01T20:08:05.079Z,102353.59
2022-12-01T20:10:32.589Z,102352.34
2022-12-01T20:13:11.360Z,102348.81
2022-12-01T20:15:37.838Z,102361.81
2022-12-01T20:18:04.319Z,102357.09
2022-12-01T20:20:31.120Z,102354.81
2022-12-01T20:23:00.435Z,102358.91
2022-12-01T20:25:26.894Z,102351.06
2022-12-01T20:27:53.455Z,102354.66
2022-12-01T20:30:19.943Z,102353.88
2022-12-01T20:32:46.410Z,102362.03
2022-12-01T20:35:12.972Z,102357.91
2022-12-01T20:37:39.414Z,102354.81
2022-12-01T20:40:06.538Z,102346.00
2022-12-01T20:42:33.092Z,102354.81
2022-12-01T20:44:59.583Z,102355.91
2022-12-01T20:47:28.517Z,102356.16
2022-12-01T20:49:58.326Z,102355.34
2022-12-01T20:52:25.045Z,102352.97
2022-12-01T20:54:53.220Z,102364.00
2022-12-01T20:57:19.687Z,102347.88
2022-12-01T20:59:46.125Z,102356.13
2022-12-01T21:02:12.578Z,102355.22
2022-12-01T21:04:39.073Z,102360.03
2022-12-01T21:07:05.550Z,102362.22
2022-12-01T21:09:32.006Z,102357.63
2022-12-01T21:12:29.083Z,102361.28
2022-12-01T21:15:05.805Z,102363.38
2022-12-01T21:17:35.819Z,102364.63
2022-12-01T21:20:12.922Z,102354.63
2022-12-01T21:22:39.394Z,102359.91
2022-12-01T21:25:18.466Z,102365.22
2022-12-01T21:27:46.695Z,102365.31
2022-12-01T21:30:17.713Z,102364.72
2022-12-01T21:32:44.692Z,102352.53
2022-12-01T21:35:29.285Z,102359.84
2022-12-01T21:38:02.148Z,102353.50
2022-12-01T21:40:48.810Z,102358.00
2022-12-01T21:43:24.721Z,102362.00
2022-12-01T21:45:58.897Z,102359.19
2022-12-01T21:48:25.615Z,102360.03
2022-12-01T21:50:59.140Z,102356.06
2022-12-01T21:53:33.512Z,102355.66
2022-12-01T21:55:59.944Z,102357.88
2022-12-01T21:58:34.425Z,102353.38
2022-12-01T22:01:01.646Z,102352.34
2022-12-01T22:03:31.510Z,102348.31
2022-12-01T22:06:31.914Z,102348.09
2022-12-01T22:09:02.067Z,102346.75
2022-12-01T22:11:29.974Z,102359.72
2022-12-01T22:14:18.135Z,102349.53
2022-12-01T22:16:48.737Z,102339.22
2022-12-01T22:22:23.680Z,102347.94
2022-12-01T22:25:02.435Z,102352.22
2022-12-01T22:27:39.262Z,102356.38
2022-12-01T22:30:06.047Z,102353.00
2022-12-01T22:32:35.582Z,102347.25
2022-12-01T22:36:01.024Z,102356.63
2022-12-01T22:38:40.560Z,102349.97
2022-12-01T22:41:14.012Z,102350.34
2022-12-01T22:43:46.122Z,102358.72
2022-12-01T22:46:29.209Z,102350.69
2022-12-01T22:48:57.459Z,102353.59
2022-12-01T22:51:36.460Z,102345.34
2022-12-01T22:54:11.916Z,102348.31
2022-12-01T22:56:43.499Z,102342.56
2022-12-01T22:59:24.267Z,102337.38
2022-12-01T23:01:55.757Z,102341.25
2022-12-01T23:04:33.302Z,102338.41
2022-12-01T23:07:25.930Z,102337.16
2022-12-01T23:09:52.559Z,102335.22
2022-12-01T23:12:50.332Z,102334.97
2022-12-01T23:15:35.924Z,102331.03
2022-12-01T23:18:15.963Z,102335.16
2022-12-01T23:20:44.290Z,102328.97
2022-12-01T23:23:15.920Z,102326.38
2022-12-01T23:25:43.048Z,102325.75
2022-12-01T23:28:11.654Z,102319.19
2022-12-01T23:30:40.225Z,102318.13
2022-12-01T23:33:32.402Z,102320.47
2022-12-01T23:36:25.301Z,102320.09
2022-12-01T23:38:57.565Z,102314.69
2022-12-01T23:41:39.469Z,102315.03
2022-12-01T23:44:38.758Z,102314.84
2022-12-01T23:47:12.808Z,102315.31
2022-12-01T23:49:39.295Z,102320.94
2022-12-01T23:52:19.671Z,102318.50
2022-12-01T23:54:47.004Z,102320.84
2022-12-01T23:57:26.222Z,102318.09
2022-12-01T23:59:59.289Z,102308.84
